Time;durP1;ratioP1;P1;durP2;ratioP2;P2;SDS_P1;SDS_P2;PMS_P1;PMS_P2;Temp;Humidity;BMP_temperature;BMP_pressure;BME280_temperature;BME280_humidity;BME280_pressure;Samples;Min_cycle;Max_cycle;Signal;HPM_P1;HPM_P2
2021/08/25 00:00:08;;;;;;;;;0.00;0.00;;;;;18.11;50.11;101921.09;5132862;27;45452;-80
2021/08/25 00:02:34;;;;;;;;;0.00;0.00;;;;;18.09;50.09;101917.53;5123040;27;45690;-80
2021/08/25 00:04:59;;;;;;;;;0.00;0.00;;;;;18.19;49.83;101929.81;5109843;27;45645;-79
2021/08/25 00:07:27;;;;;;;;;0.00;0.00;;;;;18.00;50.35;101896.53;5112362;27;45419;-80
2021/08/25 00:09:52;;;;;;;;;0.25;0.00;;;;;18.13;50.08;101915.81;5103076;27;45431;-80
2021/08/25 00:12:18;;;;;;;;;0.00;0.00;;;;;18.00;49.99;101901.78;5115567;27;45405;-79
2021/08/25 00:14:43;;;;;;;;;0.00;0.00;;;;;17.98;50.12;101909.69;5123654;27;47468;-79
2021/08/25 00:17:10;;;;;;;;;0.00;0.00;;;;;18.02;50.22;101914.06;5107070;27;45318;-79
2021/08/25 00:19:36;;;;;;;;;0.00;0.00;;;;;17.93;50.43;101895.66;5114259;27;45330;-80
2021/08/25 00:22:01;;;;;;;;;0.00;0.00;;;;;18.03;50.13;101917.56;5118915;27;45937;-80
2021/08/25 00:24:27;;;;;;;;;0.00;0.00;;;;;17.89;50.61;101893.91;5106025;27;46372;-80
2021/08/25 00:26:52;;;;;;;;;1.00;0.00;;;;;17.75;50.68;101868.50;5124785;27;45291;-80
2021/08/25 00:29:17;;;;;;;;;0.00;0.00;;;;;17.79;50.64;101872.00;5122776;27;45603;-80
2021/08/25 00:31:43;;;;;;;;;0.00;0.00;;;;;17.90;50.40;101886.00;5098187;27;45373;-81
2021/08/25 00:34:09;;;;;;;;;0.00;0.00;;;;;17.91;50.35;101903.56;5118396;27;48323;-80
2021/08/25 00:36:34;;;;;;;;;0.00;0.00;;;;;17.72;50.39;101879.03;5128983;27;45420;-81
2021/08/25 00:39:00;;;;;;;;;0.00;0.00;;;;;17.78;50.81;101893.94;5108762;27;45968;-80
2021/08/25 00:41:27;;;;;;;;;0.00;0.00;;;;;17.80;50.67;101900.94;5105841;27;45422;-80
2021/08/25 00:43:52;;;;;;;;;0.00;0.00;;;;;17.67;51.06;101892.22;5131837;27;47041;-80
2021/08/25 00:46:19;;;;;;;;;0.00;0.00;;;;;17.54;51.21;101887.84;5102402;27;45406;-80
2021/08/25 00:48:51;;;;;;;;;0.00;0.00;;;;;17.64;51.04;101908.03;5124238;27;45468;-80
2021/08/25 00:51:17;;;;;;;;;0.00;0.00;;;;;17.33;51.34;101864.22;5129387;27;45631;-80
2021/08/25 00:53:43;;;;;;;;;1.00;1.00;;;;;17.41;51.42;101885.28;5105231;27;47403;-80
2021/08/25 00:56:10;;;;;;;;;0.00;0.00;;;;;17.53;51.77;101901.91;5119865;27;45427;-79
2021/08/25 00:58:38;;;;;;;;;0.00;0.00;;;;;17.34;51.92;101871.22;5125634;27;45362;-80
2021/08/25 01:01:08;;;;;;;;;1.00;0.00;;;;;17.36;52.44;101889.66;5110960;27;45298;-79
2021/08/25 01:03:59;;;;;;;;;0.00;0.00;;;;;17.40;52.00;101901.91;5117801;27;47061;-79
2021/08/25 01:06:25;;;;;;;;;0.00;0.00;;;;;17.19;51.85;101859.00;5121204;27;45359;-80
2021/08/25 01:08:53;;;;;;;;;1.00;0.00;;;;;17.30;51.92;101871.25;5114003;27;45774;-79
2021/08/25 01:11:18;;;;;;;;;0.00;0.00;;;;;17.37;52.22;101880.91;5131555;27;45453;-80
2021/08/25 01:13:44;;;;;;;;;0.00;0.00;;;;;17.46;52.08;101891.38;5105988;27;45508;-81
2021/08/25 01:16:10;;;;;;;;;1.00;0.00;;;;;17.30;51.93;101864.22;5118129;27;45855;-80
2021/08/25 01:18:37;;;;;;;;;0.00;0.00;;;;;17.17;52.19;101849.31;5108497;27;45342;-80
2021/08/25 01:21:04;;;;;;;;;0.00;0.00;;;;;17.41;51.91;101894.91;5128218;27;45373;-80
2021/08/25 01:23:38;;;;;;;;;0.00;0.00;;;;;17.37;52.57;101887.91;5108105;27;45477;-80
2021/08/25 01:26:03;;;;;;;;;0.00;0.00;;;;;17.13;52.57;101847.59;5119453;27;46209;-80
2021/08/25 01:28:35;;;;;;;;;0.00;0.00;;;;;17.18;52.59;101859.00;5116643;27;45348;-80
2021/08/25 01:31:01;;;;;;;;;0.00;0.00;;;;;17.26;52.49;101888.78;5102550;27;45528;-80
2021/08/25 01:33:29;;;;;;;;;0.00;0.00;;;;;17.31;52.40;101894.06;5117828;27;47801;-80
2021/08/25 01:35:55;;;;;;;;;0.00;0.00;;;;;16.93;52.73;101841.44;5117936;27;45414;-81
2021/08/25 01:38:47;;;;;;;;;0.00;0.00;;;;;17.09;53.13;101866.00;5105895;27;45380;-79
2021/08/25 01:41:12;;;;;;;;;0.00;0.00;;;;;17.08;52.93;101859.00;5110582;27;45397;-79
2021/08/25 01:43:37;;;;;;;;;0.00;0.00;;;;;17.24;53.05;101885.28;5117650;27;46285;-80
2021/08/25 01:46:03;;;;;;;;;0.00;0.00;;;;;17.19;53.09;101868.63;5105554;27;45361;-81
2021/08/25 01:48:30;;;;;;;;;0.75;0.00;;;;;17.29;52.66;101874.75;5115471;27;45326;-81
2021/08/25 01:50:55;;;;;;;;;0.75;0.00;;;;;17.12;52.97;101859.00;5110569;27;45906;-80
2021/08/25 01:53:20;;;;;;;;;0.50;0.00;;;;;16.98;52.86;101833.53;5124751;27;47244;-80
2021/08/25 01:55:46;;;;;;;;;0.00;0.00;;;;;17.15;52.89;101862.47;5118643;27;45678;-80
2021/08/25 01:58:11;;;;;;;;;0.00;0.00;;;;;16.84;53.24;101815.13;5105756;27;45299;-80
2021/08/25 02:00:37;;;;;;;;;0.00;0.00;;;;;17.10;53.44;101870.38;5113386;27;45371;-80
2021/08/25 02:03:03;;;;;;;;;0.00;0.00;;;;;17.15;53.38;101875.63;5128821;27;47339;-81
2021/08/25 02:05:28;;;;;;;;;0.00;0.00;;;;;17.06;53.14;101860.75;5106287;27;45317;-80
2021/08/25 02:07:54;;;;;;;;;0.00;0.00;;;;;17.02;53.66;101848.44;5117656;27;45343;-80
2021/08/25 02:10:19;;;;;;;;;0.00;0.00;;;;;16.94;53.40;101830.03;5105199;27;45343;-80
2021/08/25 02:12:44;;;;;;;;;0.00;0.00;;;;;16.86;53.04;101821.28;5129676;27;47877;-80
2021/08/25 02:15:10;;;;;;;;;0.00;0.00;;;;;17.04;53.41;101845.81;5112331;27;45351;-80
2021/08/25 02:17:36;;;;;;;;;0.00;0.00;;;;;17.09;53.97;101865.16;5106589;27;45721;-80
2021/08/25 02:20:03;;;;;;;;;0.00;0.00;;;;;16.93;53.61;101830.03;5118437;27;45312;-80
2021/08/25 02:22:29;;;;;;;;;1.25;0.00;;;;;16.90;53.75;101836.16;5107393;27;45575;-80
2021/08/25 02:24:54;;;;;;;;;0.00;0.00;;;;;16.88;53.84;101845.81;5102777;27;45359;-80
2021/08/25 02:27:19;;;;;;;;;2.50;0.00;;;;;16.77;53.78;101823.91;5114699;27;45463;-80
2021/08/25 02:29:45;;;;;;;;;0.00;0.00;;;;;16.77;54.01;101816.91;5137959;27;45669;-80
2021/08/25 02:32:10;;;;;;;;;0.00;0.00;;;;;16.79;54.25;101820.41;5102762;27;46946;-80
2021/08/25 02:34:35;;;;;;;;;0.00;0.00;;;;;16.82;53.90;101820.38;5114809;27;45355;-80
2021/08/25 02:37:01;;;;;;;;;0.00;0.00;;;;;16.86;53.97;101826.53;5112273;27;45476;-80
2021/08/25 02:39:26;;;;;;;;;0.00;0.00;;;;;17.00;54.14;101846.69;5106113;27;45772;-80
2021/08/25 02:41:52;;;;;;;;;0.00;0.00;;;;;16.96;54.08;101845.81;5133879;27;46862;-80
2021/08/25 02:44:17;;;;;;;;;0.00;0.00;;;;;16.77;54.23;101801.13;5119733;27;45895;-80
2021/08/25 02:46:42;;;;;;;;;0.00;0.00;;;;;16.89;53.95;101826.53;5128220;27;45411;-81
2021/08/25 02:49:08;;;;;;;;;0.00;0.00;;;;;17.03;53.98;101847.56;5112283;27;45420;-80
2021/08/25 02:51:34;;;;;;;;;0.00;0.00;;;;;16.85;54.30;101835.31;5103216;27;46753;-80
2021/08/25 02:53:59;;;;;;;;;0.00;0.00;;;;;16.79;54.34;101835.31;5106146;27;45521;-79
2021/08/25 02:56:24;;;;;;;;;1.00;0.00;;;;;16.73;54.46;101830.91;5132332;27;45425;-78
2021/08/25 02:58:50;;;;;;;;;0.00;0.00;;;;;16.90;54.51;101866.84;5110084;27;45473;-78
2021/08/25 03:01:16;;;;;;;;;0.00;0.00;;;;;16.71;54.76;101843.19;5108560;27;45404;-79
2021/08/25 03:03:41;;;;;;;;;0.00;0.00;;;;;16.71;55.01;101846.69;5133279;27;45303;-79
2021/08/25 03:06:07;;;;;;;;;1.00;0.00;;;;;16.69;55.15;101837.06;5104035;27;45457;-79
2021/08/25 03:08:36;;;;;;;;;0.00;0.00;;;;;16.61;55.06;101844.94;5114539;27;45457;-79
2021/08/25 03:11:01;;;;;;;;;1.75;0.00;;;;;16.68;54.87;101854.56;5110471;27;46250;-79
2021/08/25 03:13:27;;;;;;;;;0.00;0.00;;;;;16.57;55.12;101836.16;5106574;27;45329;-79
2021/08/25 03:15:52;;;;;;;;;0.00;0.00;;;;;16.26;55.18;101793.22;5116137;27;45331;-79
2021/08/25 03:18:17;;;;;;;;;0.00;0.00;;;;;16.47;55.53;101831.75;5105243;27;45358;-79
2021/08/25 03:20:43;;;;;;;;;0.00;0.00;;;;;16.47;55.84;101839.66;5128581;27;47282;-79
2021/08/25 03:23:08;;;;;;;;;0.00;0.00;;;;;16.41;55.92;101834.38;5122372;27;45336;-78
2021/08/25 03:25:33;;;;;;;;;0.00;0.00;;;;;16.38;55.57;101822.09;5103250;27;45487;-79
2021/08/25 03:27:59;;;;;;;;;0.00;0.00;;;;;16.37;55.67;101830.88;5115717;27;45486;-79
2021/08/25 03:30:24;;;;;;;;;0.25;0.00;;;;;16.40;56.09;101841.41;5116322;27;48113;-78
2021/08/25 03:32:50;;;;;;;;;0.00;0.00;;;;;16.31;56.23;101829.13;5099143;27;45213;-79
2021/08/25 03:35:15;;;;;;;;;0.25;0.25;;;;;16.32;56.33;101846.63;5112948;27;45628;-79
2021/08/25 03:37:40;;;;;;;;;0.00;0.00;;;;;16.15;56.52;101817.69;5104376;27;45300;-79
2021/08/25 03:40:08;;;;;;;;;0.00;0.00;;;;;16.00;56.25;101788.75;5117324;27;45550;-79
2021/08/25 03:42:33;;;;;;;;;0.00;0.00;;;;;16.27;57.02;101835.25;5106709;27;45325;-79
2021/08/25 03:44:58;;;;;;;;;0.00;0.00;;;;;16.12;56.41;101820.31;5108929;27;45339;-79
2021/08/25 03:47:24;;;;;;;;;1.00;0.00;;;;;16.12;57.02;101817.69;5114251;27;45176;-79
2021/08/25 03:49:49;;;;;;;;;0.00;0.00;;;;;16.29;56.83;101835.25;5102783;27;45423;-79
2021/08/25 03:52:14;;;;;;;;;1.00;0.00;;;;;16.26;56.89;101836.09;5113319;27;45543;-79
2021/08/25 03:54:40;;;;;;;;;0.00;0.00;;;;;16.07;56.88;101801.91;5105888;27;45549;-79
2021/08/25 03:57:26;;;;;;;;;0.00;0.00;;;;;16.20;56.95;101836.97;5123744;27;45683;-79
2021/08/25 03:59:51;;;;;;;;;0.00;0.00;;;;;16.12;57.04;101820.31;5117455;27;45489;-79
2021/08/25 04:02:16;;;;;;;;;0.00;0.00;;;;;16.26;56.75;101836.09;5102574;27;45369;-79
2021/08/25 04:04:42;;;;;;;;;0.00;0.00;;;;;16.23;56.90;101838.72;5110642;27;45658;-79
2021/08/25 04:07:08;;;;;;;;;0.00;0.00;;;;;16.13;56.77;101813.28;5110941;27;45413;-81
2021/08/25 04:09:33;;;;;;;;;0.00;0.00;;;;;16.14;56.83;101823.81;5104383;27;46336;-78
2021/08/25 04:12:00;;;;;;;;;0.00;0.00;;;;;16.13;56.92;101823.81;5116486;27;45320;-79
2021/08/25 04:14:25;;;;;;;;;0.00;0.00;;;;;16.09;57.08;101821.16;5105351;27;45325;-78
2021/08/25 04:16:50;;;;;;;;;1.00;1.00;;;;;16.21;57.11;101843.09;5110761;27;45332;-79
2021/08/25 04:19:16;;;;;;;;;0.00;0.00;;;;;16.00;57.37;101788.75;5112096;27;45582;-79
2021/08/25 04:21:41;;;;;;;;;0.25;0.00;;;;;16.07;57.35;101801.03;5103584;27;45318;-79
2021/08/25 04:24:07;;;;;;;;;0.00;0.00;;;;;16.14;57.06;101807.19;5107678;27;45886;-78
2021/08/25 04:26:32;;;;;;;;;0.00;0.00;;;;;16.22;57.08;101831.72;5128966;27;45537;-79
2021/08/25 04:28:57;;;;;;;;;0.00;0.00;;;;;16.12;57.38;101815.06;5107905;27;48002;-79
2021/08/25 04:31:23;;;;;;;;;0.00;0.00;;;;;16.19;57.07;101813.31;5101767;27;45451;-79
2021/08/25 04:33:48;;;;;;;;;0.25;0.00;;;;;16.14;57.24;101804.56;5115962;27;45432;-78
2021/08/25 04:36:13;;;;;;;;;0.00;0.00;;;;;16.15;57.52;101804.56;5116045;27;45374;-78
2021/08/25 04:38:39;;;;;;;;;0.00;0.00;;;;;16.16;57.19;101822.06;5105206;27;47594;-80
2021/08/25 04:41:04;;;;;;;;;0.00;0.00;;;;;15.92;57.36;101783.44;5107518;27;45471;-79
2021/08/25 04:43:29;;;;;;;;;0.00;0.00;;;;;16.01;57.66;101808.88;5114114;27;45370;-79
2021/08/25 04:45:55;;;;;;;;;0.00;0.00;;;;;16.11;57.92;101828.19;5118867;27;45447;-79
2021/08/25 04:48:21;;;;;;;;;0.00;0.00;;;;;15.87;57.54;101779.94;5115336;27;45376;-80
2021/08/25 04:50:47;;;;;;;;;0.00;0.00;;;;;15.95;57.73;101794.84;5123523;27;45318;-79
2021/08/25 04:53:13;;;;;;;;;1.00;0.00;;;;;16.07;57.92;101816.78;5123037;27;45400;-79
2021/08/25 04:55:39;;;;;;;;;0.00;0.00;;;;;16.13;57.81;101829.06;5115213;27;45424;-79
2021/08/25 04:58:04;;;;;;;;;0.00;0.00;;;;;16.09;58.06;101821.16;5117836;27;47342;-79
2021/08/25 05:00:30;;;;;;;;;0.00;0.00;;;;;15.92;57.43;101793.94;5113608;27;45396;-79
2021/08/25 05:02:56;;;;;;;;;0.00;0.00;;;;;15.95;57.79;101797.47;5118207;27;45331;-79
2021/08/25 05:05:21;;;;;;;;;0.00;0.00;;;;;15.94;57.69;101784.34;5105661;27;45655;-79
2021/08/25 05:07:46;;;;;;;;;0.00;0.00;;;;;16.16;57.71;101819.44;5114181;27;47298;-79
2021/08/25 05:10:12;;;;;;;;;0.00;0.00;;;;;15.87;58.13;101778.19;5101200;27;45835;-79
2021/08/25 05:12:37;;;;;;;;;0.00;0.00;;;;;16.07;58.01;101822.94;5108674;27;45311;-78
2021/08/25 05:15:05;;;;;;;;;0.00;0.00;;;;;16.03;58.02;101830.78;5106932;27;45869;-79
2021/08/25 05:17:30;;;;;;;;;0.00;0.00;;;;;15.99;58.21;101815.91;5114449;27;46764;-79
2021/08/25 05:19:59;;;;;;;;;0.00;0.00;;;;;16.02;58.23;101821.16;5115659;27;45380;-79
2021/08/25 05:22:24;;;;;;;;;0.00;0.00;;;;;15.99;58.17;101806.28;5102789;27;45432;-79
2021/08/25 05:24:50;;;;;;;;;1.00;1.00;;;;;16.10;57.99;101829.94;5117678;27;46179;-78
2021/08/25 05:27:15;;;;;;;;;0.00;0.00;;;;;16.14;57.74;101828.19;5110847;27;45389;-79
2021/08/25 05:29:41;;;;;;;;;0.00;0.00;;;;;16.08;57.95;101827.28;5101145;27;45379;-78
2021/08/25 05:32:06;;;;;;;;;0.00;0.00;;;;;16.05;57.62;101823.81;5115468;27;45517;-78
2021/08/25 05:34:32;;;;;;;;;0.50;0.50;;;;;15.89;58.30;101799.22;5102169;27;45678;-80
2021/08/25 05:36:57;;;;;;;;;1.50;0.00;;;;;16.05;57.80;101822.03;5107143;27;45366;-78
2021/08/25 05:39:22;;;;;;;;;1.00;1.00;;;;;16.24;57.82;101831.72;5116542;27;45361;-79
2021/08/25 05:41:48;;;;;;;;;0.75;0.75;;;;;16.13;57.40;101803.69;5103981;27;45514;-79
2021/08/25 05:44:13;;;;;;;;;0.25;0.25;;;;;16.12;57.63;101794.06;5107544;27;45396;-78
2021/08/25 05:46:38;;;;;;;;;0.75;0.75;;;;;16.18;57.58;101801.94;5133710;27;47017;-79
2021/08/25 05:49:03;;;;;;;;;1.00;1.00;;;;;16.44;57.53;101830.00;5110730;27;45324;-78
2021/08/25 05:51:29;;;;;;;;;0.50;0.50;;;;;16.33;57.76;101797.59;5105028;27;45467;-78
2021/08/25 05:53:54;;;;;;;;;0.00;0.00;;;;;16.45;57.04;101802.84;5103030;27;45357;-78
2021/08/25 05:56:20;;;;;;;;;2.25;0.00;;;;;16.61;57.12;101830.91;5133450;27;47518;-78
2021/08/25 05:58:48;;;;;;;;;0.25;0.25;;;;;16.45;57.10;101800.22;5100372;27;45392;-78
2021/08/25 06:01:15;;;;;;;;;0.00;0.00;;;;;16.73;57.11;101841.44;5111699;27;45456;-79
2021/08/25 06:03:41;;;;;;;;;0.00;0.00;;;;;16.45;57.10;101783.59;5100222;27;45538;-80
2021/08/25 06:06:06;;;;;;;;;0.00;0.00;;;;;16.77;57.05;101848.44;5099931;27;46526;-80
2021/08/25 06:08:32;;;;;;;;;0.00;0.00;;;;;16.61;56.42;101813.38;5101048;27;45567;-81
2021/08/25 06:10:57;;;;;;;;;0.00;0.00;;;;;16.82;56.84;101846.69;5099931;27;45671;-79
2021/08/25 06:13:22;;;;;;;;;0.00;0.00;;;;;16.89;56.57;101850.19;5109068;27;45643;-81
2021/08/25 06:15:48;;;;;;;;;0.00;0.00;;;;;16.85;56.37;101832.69;5101055;27;45495;-81
2021/08/25 06:18:13;;;;;;;;;0.00;0.00;;;;;17.01;56.37;101840.53;5101575;27;45466;-80
2021/08/25 06:20:39;;;;;;;;;0.00;0.00;;;;;16.96;56.49;101838.81;5102589;27;45625;-80
2021/08/25 06:23:04;;;;;;;;;0.00;0.00;;;;;16.80;56.10;101811.63;5103155;27;45660;-81
2021/08/25 06:25:29;;;;;;;;;0.50;0.00;;;;;16.78;56.13;101820.41;5109031;27;47091;-81
2021/08/25 06:27:55;;;;;;;;;2.00;0.00;;;;;16.89;56.57;101836.16;5103086;27;45361;-81
2021/08/25 06:30:20;;;;;;;;;0.00;0.00;;;;;16.65;56.33;101801.09;5099940;27;45645;-81
2021/08/25 06:32:46;;;;;;;;;0.00;0.00;;;;;16.92;56.58;101844.06;5102509;27;45416;-80
2021/08/25 06:35:11;;;;;;;;;0.25;0.25;;;;;16.92;56.46;101841.44;5103929;27;45689;-81
2021/08/25 06:37:36;;;;;;;;;0.00;0.00;;;;;16.98;56.25;101846.69;5103051;27;45561;-82
2021/08/25 06:40:03;;;;;;;;;0.00;0.00;;;;;16.88;56.11;101848.47;5103792;27;45500;-80
2021/08/25 06:42:28;;;;;;;;;0.00;0.00;;;;;16.70;56.32;101836.19;5105239;27;45928;-81
2021/08/25 06:44:54;;;;;;;;;0.00;0.00;;;;;16.45;56.72;101809.88;5104379;27;48360;-86
2021/08/25 06:47:19;;;;;;;;;0.00;0.00;;;;;16.59;56.68;101828.28;5118317;27;45520;-82
2021/08/25 06:49:44;;;;;;;;;0.00;0.00;;;;;16.54;56.92;101830.88;5120753;27;45372;-84
2021/08/25 06:52:10;;;;;;;;;0.00;0.00;;;;;16.61;57.26;101850.19;5123342;27;45613;-83
2021/08/25 06:54:35;;;;;;;;;0.00;0.00;;;;;16.14;56.97;101762.53;5104136;27;45562;-80
2021/08/25 06:57:01;;;;;;;;;0.00;0.00;;;;;16.57;57.04;101828.25;5113011;27;45340;-83
2021/08/25 06:59:26;;;;;;;;;0.50;0.50;;;;;16.58;57.06;101811.63;5121194;27;45460;-82
2021/08/25 07:01:52;;;;;;;;;0.00;0.00;;;;;16.70;57.08;101816.00;5101581;27;45629;-81
2021/08/25 07:04:18;;;;;;;;;0.00;0.00;;;;;16.88;56.81;101816.00;5120139;27;48353;-82
2021/08/25 07:06:44;;;;;;;;;0.00;0.00;;;;;17.10;56.38;101830.91;5103056;27;45477;-81
2021/08/25 07:09:09;;;;;;;;;1.50;0.50;;;;;16.96;55.86;101804.59;5105212;27;45468;-81
2021/08/25 07:11:35;;;;;;;;;0.00;0.00;;;;;17.22;55.95;101856.34;5099205;27;45696;-80
2021/08/25 07:14:01;;;;;;;;;0.00;0.00;;;;;16.93;55.74;101827.38;5103745;27;47479;-82
2021/08/25 07:16:26;;;;;;;;;1.00;0.75;;;;;17.12;56.08;101862.47;5083271;27;47579;-82
2021/08/25 07:19:22;;;;;;;;;0.00;0.00;;;;;16.72;56.10;101811.63;5118813;27;45515;-81
2021/08/25 07:33:41;;;;;;;;;;;;;;;;;;;;;
2021/08/25 07:36:13;;;;;;;;;0.00;0.00;;;;;17.19;55.63;101766.03;4877551;29;71767;-80
2021/08/25 07:38:39;;;;;;;;;0.00;0.00;;;;;17.58;55.45;101824.66;4913150;28;47619;-80
2021/08/25 07:41:05;;;;;;;;;0.00;0.00;;;;;17.54;55.17;101808.88;4953970;28;45870;-83
2021/08/25 07:43:30;;;;;;;;;0.00;0.00;;;;;17.83;54.87;101855.31;5021893;28;45367;-82
2021/08/25 07:45:56;;;;;;;;;0.00;0.00;;;;;17.88;55.02;101853.53;5084881;27;45436;-82
2021/08/25 07:48:21;;;;;;;;;0.00;0.00;;;;;17.96;54.94;101857.03;5088149;27;48143;-82
2021/08/25 07:50:49;;;;;;;;;0.50;0.50;;;;;17.96;54.62;101828.03;5090280;27;45799;-82
2021/08/25 07:53:15;;;;;;;;;0.00;0.00;;;;;18.03;54.38;101825.34;5094970;27;45328;-82
2021/08/25 07:55:41;;;;;;;;;0.00;0.00;;;;;18.00;54.18;101806.97;5083831;27;45494;-83
2021/08/25 07:58:07;;;;;;;;;0.00;0.00;;;;;18.24;54.52;101834.94;5086783;27;45340;-83
2021/08/25 08:00:35;;;;;;;;;0.25;0.00;;;;;17.81;53.86;101764.88;5090556;27;45959;-79
2021/08/25 08:07:00;;;;;;;;;1.00;0.00;;;;;17.75;53.81;101705.25;5025023;28;46581;-81
2021/08/25 08:13:01;;;;;;;;;0.00;0.00;;;;;17.90;53.68;101722.72;5015677;28;45733;-80
2021/08/25 08:15:29;;;;;;;;;1.00;0.00;;;;;18.63;53.23;101847.88;5031346;28;45801;-78
2021/08/25 08:17:55;;;;;;;;;5.50;0.00;;;;;18.41;53.45;101797.06;5065829;27;45496;-82
2021/08/25 08:20:20;;;;;;;;;0.00;0.00;;;;;18.42;53.61;101782.97;5072170;27;47228;-82
2021/08/25 08:22:46;;;;;;;;;0.00;0.00;;;;;18.58;53.10;101800.44;5078242;27;45413;-82
2021/08/25 08:25:11;;;;;;;;;0.00;0.00;;;;;18.76;52.89;101803.81;5103899;27;45453;-83
2021/08/25 08:27:36;;;;;;;;;0.00;0.00;;;;;18.89;53.24;101811.63;5078481;27;45461;-82
2021/08/25 08:30:03;;;;;;;;;0.25;0.00;;;;;18.96;53.20;101830.00;5076775;27;46852;-81
2021/08/25 08:32:31;;;;;;;;;0.00;0.00;;;;;18.90;52.77;101806.34;5081913;27;45590;-83
2021/08/25 08:35:00;;;;;;;;;0.00;0.00;;;;;19.20;52.76;101830.69;5091529;27;45480;-83
2021/08/25 08:37:25;;;;;;;;;0.00;0.00;;;;;19.31;52.89;101805.94;5074236;27;45560;-83
2021/08/25 08:39:51;;;;;;;;;0.00;0.00;;;;;19.22;52.14;101788.44;5079190;27;45739;-83
2021/08/25 08:42:31;;;;;;;;;0.00;0.00;;;;;19.46;52.30;101811.06;5114571;27;46096;-83
2021/08/25 08:44:57;;;;;;;;;0.50;0.00;;;;;19.47;52.62;101785.50;5085880;27;45334;-83
2021/08/25 08:47:30;;;;;;;;;0.00;0.00;;;;;19.48;51.53;101772.28;5073984;27;45495;-85
2021/08/25 08:50:00;;;;;;;;;0.00;0.00;;;;;19.88;51.68;101820.25;5076789;27;46463;-84
2021/08/25 08:52:26;;;;;;;;;0.00;0.00;;;;;19.70;50.94;101774.69;5078813;27;45529;-82
2021/08/25 08:54:54;;;;;;;;;0.00;0.00;;;;;20.10;50.71;101818.22;5095805;27;45398;-82
2021/08/25 08:57:20;;;;;;;;;0.00;0.00;;;;;20.11;50.47;101819.06;5086628;27;45517;-82
2021/08/25 08:59:50;;;;;;;;;0.00;0.00;;;;;19.79;50.67;101756.94;5076241;27;45376;-83
2021/08/25 09:06:13;;;;;;;;;0.00;0.00;;;;;20.34;49.99;101816.06;5054627;28;45381;-82
2021/08/25 09:13:39;;;;;;;;;;;;;;;;;;;;;
2021/08/25 09:16:55;;;;;;;;;0.25;0.00;;;;;20.30;50.10;101814.38;5007460;28;71529;-84
2021/08/25 09:20:03;;;;;;;;;0.00;0.00;;;;;20.33;50.29;101803.75;4985617;28;45534;-84
2021/08/25 09:27:05;;;;;;;;;0.00;0.00;;;;;20.55;49.07;101810.50;4966329;28;45692;-83
2021/08/25 09:33:07;;;;;;;;;0.00;0.00;;;;;19.82;49.03;101638.88;4898798;29;45433;-84
2021/08/25 09:36:52;;;;;;;;;0.50;0.50;;;;;20.29;48.39;101709.53;4884871;29;45481;-87
2021/08/25 09:39:56;;;;;;;;;0.00;0.00;;;;;21.08;47.83;101809.59;4787028;29;47829;-85
2021/08/25 09:42:23;;;;;;;;;0.00;0.00;;;;;20.54;47.68;101713.50;4786535;29;45823;-82
2021/08/25 09:45:20;;;;;;;;;0.25;0.00;;;;;21.18;47.27;101807.63;4868649;29;45376;-87
2021/08/25 09:48:24;;;;;;;;;1.00;0.00;;;;;21.27;47.58;101808.34;4901445;29;45449;-86
2021/08/25 09:57:03;;;;;;;;;0.00;0.00;;;;;20.63;46.04;101674.56;5010855;28;45720;-88
2021/08/25 09:59:29;;;;;;;;;0.00;0.00;;;;;21.04;46.08;101739.09;5031654;28;45565;-89
2021/08/25 10:01:54;;;;;;;;;0.00;0.00;;;;;21.09;45.72;101723.97;5033316;28;45437;-87
2021/08/25 10:04:20;;;;;;;;;1.25;0.00;;;;;21.26;45.35;101743.03;5025256;28;45552;-85
2021/08/25 10:06:48;;;;;;;;;0.00;0.00;;;;;21.54;46.40;101780.47;5000937;28;45694;-83
2021/08/25 10:09:16;;;;;;;;;1.00;0.00;;;;;21.61;45.48;101779.41;5020137;28;45579;-87
2021/08/25 10:11:48;;;;;;;;;0.25;0.00;;;;;21.53;45.24;101753.09;5018655;28;45478;-81
2021/08/25 10:14:18;;;;;;;;;0.50;0.00;;;;;21.69;45.66;101766.91;5024225;28;45466;-80
2021/08/25 10:16:49;;;;;;;;;1.75;0.75;;;;;21.80;45.05;101763.19;5053248;28;45426;-84
2021/08/25 10:19:37;;;;;;;;;0.00;0.00;;;;;21.96;45.37;101775.16;5074353;28;45527;-84
2021/08/25 10:22:15;;;;;;;;;1.00;1.00;;;;;22.03;44.64;101770.59;5038951;28;46714;-84
2021/08/25 10:24:55;;;;;;;;;0.00;0.00;;;;;22.11;44.26;101763.31;5055434;28;45352;-81
2021/08/25 10:27:22;;;;;;;;;0.50;0.00;;;;;22.12;44.46;101757.13;5056727;27;45807;-84
2021/08/25 10:30:03;;;;;;;;;0.00;0.00;;;;;22.28;44.23;101762.03;5075962;27;45693;-78
2021/08/25 10:32:29;;;;;;;;;0.75;0.75;;;;;22.23;43.71;101745.34;5081833;27;46208;-78
2021/08/25 10:35:31;;;;;;;;;0.00;0.00;;;;;22.26;43.64;101751.47;5079229;27;45849;-79
2021/08/25 10:38:30;;;;;;;;;1.00;0.00;;;;;22.24;42.68;101749.78;5080769;27;45545;-79
2021/08/25 10:41:17;;;;;;;;;0.00;0.00;;;;;21.97;42.33;101721.25;5066128;27;45397;-78
2021/08/25 10:43:43;;;;;;;;;0.00;0.00;;;;;21.97;43.27;101736.28;5085236;27;47171;-80
2021/08/25 10:46:13;;;;;;;;;0.00;0.00;;;;;22.06;43.47;101743.13;5095510;27;45473;-79
2021/08/25 10:48:44;;;;;;;;;0.00;0.00;;;;;22.15;43.62;101745.56;5087743;27;45441;-79
2021/08/25 10:51:26;;;;;;;;;0.00;0.00;;;;;22.24;43.81;101755.06;5107735;27;45529;-79
2021/08/25 10:53:52;;;;;;;;;0.00;0.00;;;;;22.26;43.25;101748.81;5095723;27;47487;-78
2021/08/25 10:56:27;;;;;;;;;0.00;0.00;;;;;22.21;43.20;101716.25;5103133;27;45378;-79
2021/08/25 10:59:03;;;;;;;;;0.50;0.00;;;;;22.43;43.79;101736.91;5070385;27;45475;-79
2021/08/25 11:01:36;;;;;;;;;0.00;0.00;;;;;22.48;42.69;101736.81;5069384;27;45389;-78
2021/08/25 11:04:04;;;;;;;;;0.00;0.00;;;;;22.48;42.77;101734.16;5085552;27;45448;-78
2021/08/25 11:06:29;;;;;;;;;0.00;0.00;;;;;22.46;41.95;101723.59;5077057;27;45460;-79
2021/08/25 11:09:24;;;;;;;;;0.00;0.00;;;;;22.43;42.04;101728.97;5095696;27;45478;-78
2021/08/25 11:11:52;;;;;;;;;0.00;0.00;;;;;;;;5073566;27;45400;-79
2021/08/25 11:14:22;;;;;;;;;0.00;0.00;;;;;22.21;43.15;101691.50;5086392;27;48343;-78
2021/08/25 11:16:48;;;;;;;;;0.00;0.00;;;;;22.32;42.47;101700.06;5076393;27;45468;-79
2021/08/25 11:19:21;;;;;;;;;0.00;0.00;;;;;22.19;42.46;101667.69;5127342;27;45457;-78
2021/08/25 11:21:47;;;;;;;;;0.50;0.00;;;;;22.43;42.30;101683.00;5084810;27;45430;-78
2021/08/25 11:24:12;;;;;;;;;0.00;0.00;;;;;22.59;41.77;101691.44;5088064;27;47908;-79
2021/08/25 11:26:37;;;;;;;;;0.50;0.50;;;;;22.62;42.20;101692.25;5093006;27;45259;-78
2021/08/25 11:29:04;;;;;;;;;0.00;0.00;;;;;22.64;41.76;101695.69;5075796;27;45535;-79
2021/08/25 11:31:30;;;;;;;;;1.00;1.00;;;;;22.67;42.04;101689.47;5082012;27;45478;-79
2021/08/25 11:33:55;;;;;;;;;0.00;0.00;;;;;22.69;41.49;101673.50;5085129;27;47634;-78
2021/08/25 11:36:21;;;;;;;;;0.00;0.00;;;;;22.72;40.96;101670.78;5087750;27;45327;-79
2021/08/25 11:38:46;;;;;;;;;0.00;0.00;;;;;22.68;40.74;101669.97;5093370;27;45244;-79
2021/08/25 11:41:11;;;;;;;;;1.00;0.00;;;;;22.83;40.29;101687.25;5093742;27;45479;-78
2021/08/25 11:43:48;;;;;;;;;0.00;0.00;;;;;22.75;41.78;101663.56;5092629;27;45678;-79
2021/08/25 11:46:24;;;;;;;;;1.50;0.00;;;;;22.80;41.45;101681.16;5087851;27;45359;-79
2021/08/25 11:48:50;;;;;;;;;0.00;0.00;;;;;22.90;41.88;101691.47;5081249;27;45434;-79
2021/08/25 11:51:16;;;;;;;;;0.00;0.00;;;;;22.83;41.50;101676.63;5082397;27;45551;-79
2021/08/25 11:53:43;;;;;;;;;0.00;0.00;;;;;22.86;41.52;101673.91;5090691;27;45698;-79
2021/08/25 11:56:09;;;;;;;;;0.00;0.00;;;;;23.00;41.42;101683.25;5078491;28;45502;-79
2021/08/25 11:58:38;;;;;;;;;0.00;0.00;;;;;22.88;41.05;101663.25;5092554;27;45355;-78
2021/08/25 12:01:04;;;;;;;;;1.00;0.00;;;;;23.12;41.12;101696.16;5081893;27;45589;-78
2021/08/25 12:03:42;;;;;;;;;0.00;0.00;;;;;23.13;40.41;101699.69;5092326;27;47587;-78
2021/08/25 12:06:08;;;;;;;;;0.00;0.00;;;;;22.97;39.49;101681.53;5087046;27;45446;-79
2021/08/25 12:08:41;;;;;;;;;0.00;0.00;;;;;23.06;40.51;101674.22;5091735;27;45455;-78
2021/08/25 12:11:09;;;;;;;;;1.00;0.00;;;;;23.14;40.21;101678.41;5082009;27;45484;-78
2021/08/25 12:13:36;;;;;;;;;0.00;0.00;;;;;23.03;40.05;101673.41;5092048;27;48072;-78
2021/08/25 12:16:06;;;;;;;;;0.00;0.00;;;;;23.03;40.54;101676.06;5085433;27;45899;-77